Time,TemperatureF,DewpointF,PressureIn,WindDirection,WindDirectionDegrees,WindSpeedMPH,WindSpeedGustMPH,Humidity,HourlyPrecipIn,Conditions,Clouds,dailyrainin,SolarRadiationWatts/m^2,SoftwareType,DateUTC
2013-01-18 00:22:00,20.0,19.0,-100.00,ENE,66,0.0,0.0,95,0.00,,,0.89,0.000000,,2013-01-18 05:22:00,
2013-01-18 00:33:00,20.0,19.0,-100.00,ENE,66,0.0,0.0,95,0.00,,,0.89,0.000000,,2013-01-18 05:33:00,
2013-01-18 00:43:00,20.0,19.0,-100.00,ENE,66,0.0,0.0,95,0.00,,,0.89,0.000000,,2013-01-18 05:43:00,
2013-01-18 00:53:00,20.0,19.0,-100.00,ENE,66,0.0,0.0,95,0.00,,,0.89,0.000000,,2013-01-18 05:53:00,
2013-01-18 01:02:00,20.0,19.0,-100.00,ENE,66,0.0,0.0,95,0.00,,,0.89,0.000000,,2013-01-18 06:02:00,
2013-01-18 01:33:00,18.0,17.0,-100.00,ENE,68,0.0,0.0,94,0.00,,,0.89,0.000000,,2013-01-18 06:33:00,
2013-01-18 01:43:00,18.0,17.0,-100.00,ENE,68,0.0,0.0,94,0.00,,,0.89,0.000000,,2013-01-18 06:43:00,
2013-01-18 01:53:00,18.0,17.0,-100.00,ENE,68,0.0,0.0,94,0.00,,,0.89,0.000000,,2013-01-18 06:53:00,
2013-01-18 02:02:00,18.0,17.0,-100.00,ENE,68,0.0,0.0,94,0.00,,,0.89,0.000000,,2013-01-18 07:02:00,
2013-01-18 02:33:00,17.0,15.0,-100.00,ENE,60,0.0,0.0,92,0.00,,,0.87,0.000000,,2013-01-18 07:33:00,
2013-01-18 02:42:00,17.0,15.0,-100.00,ENE,60,0.0,0.0,92,0.00,,,0.87,0.000000,,2013-01-18 07:42:00,
2013-01-18 02:52:00,17.0,15.0,-100.00,ENE,60,0.0,0.0,92,0.00,,,0.87,0.000000,,2013-01-18 07:52:00,
2013-01-18 03:02:00,17.0,15.0,-100.00,ENE,60,0.0,0.0,92,0.00,,,0.87,0.000000,,2013-01-18 08:02:00,
2013-01-18 03:03:00,16.0,14.0,-100.00,ENE,68,0.0,0.0,92,0.00,,,0.85,0.000000,,2013-01-18 08:03:00,
2013-01-18 03:22:00,16.0,14.0,-100.00,ENE,68,0.0,0.0,92,0.00,,,0.85,0.000000,,2013-01-18 08:22:00,
2013-01-18 03:33:00,16.0,14.0,-100.00,ENE,68,0.0,0.0,92,0.00,,,0.85,0.000000,,2013-01-18 08:33:00,
2013-01-18 03:43:00,16.0,14.0,-100.00,ENE,68,0.0,0.0,92,0.00,,,0.85,0.000000,,2013-01-18 08:43:00,
2013-01-18 03:53:00,16.0,14.0,-100.00,ENE,68,0.0,0.0,92,0.00,,,0.85,0.000000,,2013-01-18 08:53:00,
2013-01-18 04:03:00,16.0,14.0,-100.00,ENE,63,0.0,0.0,92,0.00,,,0.84,0.000000,,2013-01-18 09:03:00,
2013-01-18 04:22:00,16.0,14.0,-100.00,ENE,63,0.0,0.0,92,0.00,,,0.84,0.000000,,2013-01-18 09:22:00,
2013-01-18 04:33:00,16.0,14.0,-100.00,ENE,63,0.0,0.0,92,0.00,,,0.84,0.000000,,2013-01-18 09:33:00,
2013-01-18 04:43:00,16.0,14.0,-100.00,ENE,63,0.0,0.0,92,0.00,,,0.84,0.000000,,2013-01-18 09:43:00,
2013-01-18 04:53:00,16.0,14.0,-100.00,ENE,63,0.0,0.0,92,0.00,,,0.84,0.000000,,2013-01-18 09:53:00,
2013-01-18 05:22:00,16.0,14.0,-100.00,ENE,64,0.0,0.0,92,0.00,,,0.80,0.000000,,2013-01-18 10:22:00,
2013-01-18 05:33:00,16.0,14.0,-100.00,ENE,64,0.0,0.0,92,0.00,,,0.80,0.000000,,2013-01-18 10:33:00,
2013-01-18 05:43:00,16.0,14.0,-100.00,ENE,64,0.0,0.0,92,0.00,,,0.80,0.000000,,2013-01-18 10:43:00,
2013-01-18 05:53:00,16.0,14.0,-100.00,ENE,64,0.0,0.0,92,0.00,,,0.80,0.000000,,2013-01-18 10:53:00,
2013-01-18 06:02:00,16.0,14.0,-100.00,ENE,64,0.0,0.0,92,0.00,,,0.80,0.000000,,2013-01-18 11:02:00,
2013-01-18 06:03:00,15.0,13.0,-100.00,ENE,63,0.0,0.0,92,0.00,,,0.78,0.000000,,2013-01-18 11:03:00,
2013-01-18 06:23:00,15.0,13.0,-100.00,ENE,63,0.0,0.0,92,0.00,,,0.78,0.000000,,2013-01-18 11:23:00,
2013-01-18 06:33:00,15.0,13.0,-100.00,ENE,63,0.0,0.0,92,0.00,,,0.78,0.000000,,2013-01-18 11:33:00,
2013-01-18 06:43:00,15.0,13.0,-100.00,ENE,63,0.0,0.0,92,0.00,,,0.78,0.000000,,2013-01-18 11:43:00,
2013-01-18 06:53:00,15.0,13.0,-100.00,ENE,63,0.0,0.0,92,0.00,,,0.78,0.000000,,2013-01-18 11:53:00,
2013-01-18 07:03:00,15.0,13.0,-100.00,ENE,71,0.0,0.0,91,0.00,,,0.71,0.000000,,2013-01-18 12:03:00,
2013-01-18 07:33:00,15.0,13.0,-100.00,ENE,71,0.0,0.0,91,0.00,,,0.71,0.000000,,2013-01-18 12:33:00,
2013-01-18 07:43:00,15.0,13.0,-100.00,ENE,71,0.0,0.0,91,0.00,,,0.71,0.000000,,2013-01-18 12:43:00,
2013-01-18 07:53:00,15.0,13.0,-100.00,ENE,71,0.0,0.0,91,0.00,,,0.71,0.000000,,2013-01-18 12:53:00,
2013-01-18 08:03:00,16.0,14.0,-100.00,ENE,69,0.0,0.0,91,0.00,,,0.69,10.000000,,2013-01-18 13:03:00,
2013-01-18 08:33:00,16.0,14.0,-100.00,ENE,69,0.0,0.0,91,0.00,,,0.69,10.000000,,2013-01-18 13:33:00,
2013-01-18 08:43:00,16.0,14.0,-100.00,ENE,69,0.0,0.0,91,0.00,,,0.69,10.000000,,2013-01-18 13:43:00,
2013-01-18 08:53:00,16.0,14.0,-100.00,ENE,69,0.0,0.0,91,0.00,,,0.69,10.000000,,2013-01-18 13:53:00,
2013-01-18 09:03:00,17.0,15.0,-100.00,ENE,76,0.0,0.0,91,0.00,,,0.62,107.000000,,2013-01-18 14:03:00,
2013-01-18 09:34:00,17.0,15.0,-100.00,ENE,76,0.0,0.0,91,0.00,,,0.62,107.000000,,2013-01-18 14:34:00,
2013-01-18 09:43:00,17.0,15.0,-100.00,ENE,76,0.0,0.0,91,0.00,,,0.62,107.000000,,2013-01-18 14:43:00,
2013-01-18 09:53:00,17.0,15.0,-100.00,ENE,76,0.0,0.0,91,0.00,,,0.62,107.000000,,2013-01-18 14:53:00,
2013-01-18 12:03:00,24.0,22.0,-100.00,ESE,112,0.0,0.0,92,-99.99,,,-99.99,509.000000,,2013-01-18 17:03:00,
2013-01-18 12:34:00,24.0,22.0,-100.00,ESE,112,0.0,0.0,92,-99.99,,,-99.99,509.000000,,2013-01-18 17:34:00,
2013-01-18 12:43:00,24.0,22.0,-100.00,ESE,112,0.0,0.0,92,-99.99,,,-99.99,509.000000,,2013-01-18 17:43:00,
2013-01-18 12:53:00,24.0,22.0,-100.00,ESE,112,0.0,0.0,92,-99.99,,,-99.99,509.000000,,2013-01-18 17:53:00,
2013-01-18 13:03:00,26.0,24.0,-100.00,ESE,111,0.0,0.0,93,0.00,,,0.27,605.000000,,2013-01-18 18:03:00,
2013-01-18 13:34:00,26.0,24.0,-100.00,ESE,111,0.0,0.0,93,0.00,,,0.27,605.000000,,2013-01-18 18:34:00,
2013-01-18 13:43:00,26.0,24.0,-100.00,ESE,111,0.0,0.0,93,0.00,,,0.27,605.000000,,2013-01-18 18:43:00,
2013-01-18 13:53:00,26.0,24.0,-100.00,ESE,111,0.0,0.0,93,0.00,,,0.27,605.000000,,2013-01-18 18:53:00,
2013-01-18 14:03:00,29.0,27.0,-100.00,ESE,107,0.0,0.0,94,0.00,,,-99.99,607.000000,,2013-01-18 19:03:00,
2013-01-18 14:33:00,29.0,27.0,-100.00,ESE,107,0.0,0.0,94,0.00,,,-99.99,607.000000,,2013-01-18 19:33:00,
2013-01-18 14:43:00,29.0,27.0,-100.00,ESE,107,0.0,0.0,94,0.00,,,-99.99,607.000000,,2013-01-18 19:43:00,
2013-01-18 14:53:00,29.0,27.0,-100.00,ESE,107,0.0,0.0,94,0.00,,,-99.99,607.000000,,2013-01-18 19:53:00,
2013-01-18 15:03:00,31.0,30.0,-100.00,NNE,15,2.0,5.0,97,0.05,,,-99.99,526.000000,,2013-01-18 20:03:00,
2013-01-18 15:33:00,31.0,30.0,-100.00,NNE,15,2.0,5.0,97,0.05,,,-99.99,526.000000,,2013-01-18 20:33:00,
2013-01-18 15:43:00,31.0,30.0,-100.00,NNE,15,2.0,5.0,97,0.05,,,-99.99,526.000000,,2013-01-18 20:43:00,
2013-01-18 15:53:00,31.0,30.0,-100.00,NNE,15,2.0,5.0,97,0.05,,,-99.99,526.000000,,2013-01-18 20:53:00,
2013-01-18 16:03:00,33.0,32.0,-100.00,NNW,345,3.0,5.0,98,0.00,,,-99.99,391.000000,,2013-01-18 21:03:00,
2013-01-18 16:33:00,33.0,32.0,-100.00,NNW,345,3.0,5.0,98,0.00,,,-99.99,391.000000,,2013-01-18 21:33:00,
2013-01-18 16:43:00,33.0,32.0,-100.00,NNW,345,3.0,5.0,98,0.00,,,-99.99,391.000000,,2013-01-18 21:43:00,
2013-01-18 16:53:00,33.0,32.0,-100.00,NNW,345,3.0,5.0,98,0.00,,,-99.99,391.000000,,2013-01-18 21:53:00,
2013-01-18 17:03:00,33.0,33.0,-100.00,NNW,338,5.0,6.0,99,0.00,,,-99.99,207.000000,,2013-01-18 22:03:00,
2013-01-18 17:33:00,33.0,33.0,-100.00,NNW,338,5.0,6.0,99,0.00,,,-99.99,207.000000,,2013-01-18 22:33:00,
2013-01-18 17:43:00,33.0,33.0,-100.00,NNW,338,5.0,6.0,99,0.00,,,-99.99,207.000000,,2013-01-18 22:43:00,
2013-01-18 17:53:00,33.0,33.0,-100.00,NNW,338,5.0,6.0,99,0.00,,,-99.99,207.000000,,2013-01-18 22:53:00,
2013-01-18 18:23:00,29.0,29.0,-100.00,WNW,300,8.0,11.0,100,0.00,,,0.05,16.000000,,2013-01-18 23:23:00,
2013-01-18 18:33:00,29.0,29.0,-100.00,WNW,300,8.0,11.0,100,0.00,,,0.05,16.000000,,2013-01-18 23:33:00,
2013-01-18 18:43:00,29.0,29.0,-100.00,WNW,300,8.0,11.0,100,0.00,,,0.05,16.000000,,2013-01-18 23:43:00,
2013-01-18 18:53:00,29.0,29.0,-100.00,WNW,300,8.0,11.0,100,0.00,,,0.05,16.000000,,2013-01-18 23:53:00,
2013-01-18 19:02:00,29.0,29.0,-100.00,WNW,300,8.0,11.0,100,0.00,,,0.05,16.000000,,2013-01-19 00:02:00,
2013-01-18 19:23:00,26.0,25.0,-100.00,West,279,13.0,15.0,97,0.00,,,0.05,0.000000,,2013-01-19 00:23:00,
2013-01-18 19:33:00,26.0,25.0,-100.00,West,279,13.0,15.0,97,0.00,,,0.05,0.000000,,2013-01-19 00:33:00,
2013-01-18 19:43:00,26.0,25.0,-100.00,West,279,13.0,15.0,97,0.00,,,0.05,0.000000,,2013-01-19 00:43:00,
2013-01-18 19:53:00,26.0,25.0,-100.00,West,279,13.0,15.0,97,0.00,,,0.05,0.000000,,2013-01-19 00:53:00,
2013-01-18 20:02:00,26.0,25.0,-100.00,West,279,13.0,15.0,97,0.00,,,0.05,0.000000,,2013-01-19 01:02:00,
2013-01-18 20:03:00,27.0,26.0,-100.00,West,271,16.0,19.0,95,0.00,,,0.05,0.000000,,2013-01-19 01:03:00,
2013-01-18 20:23:00,27.0,26.0,-100.00,West,271,16.0,19.0,95,0.00,,,0.05,0.000000,,2013-01-19 01:23:00,
2013-01-18 20:33:00,27.0,26.0,-100.00,West,271,16.0,19.0,95,0.00,,,0.05,0.000000,,2013-01-19 01:33:00,
2013-01-18 20:43:00,27.0,26.0,-100.00,West,271,16.0,19.0,95,0.00,,,0.05,0.000000,,2013-01-19 01:43:00,
2013-01-18 20:53:00,27.0,26.0,-100.00,West,271,16.0,19.0,95,0.00,,,0.05,0.000000,,2013-01-19 01:53:00,
2013-01-18 21:03:00,28.0,27.0,-100.00,NW,306,13.0,20.0,94,0.00,,,0.05,0.000000,,2013-01-19 02:03:00,
2013-01-18 21:33:00,28.0,27.0,-100.00,NW,306,13.0,20.0,94,0.00,,,0.05,0.000000,,2013-01-19 02:33:00,
2013-01-18 21:43:00,28.0,27.0,-100.00,NW,306,13.0,20.0,94,0.00,,,0.05,0.000000,,2013-01-19 02:43:00,
2013-01-18 21:53:00,28.0,27.0,-100.00,NW,306,13.0,20.0,94,0.00,,,0.05,0.000000,,2013-01-19 02:53:00,
2013-01-18 22:33:00,28.0,26.0,-100.00,WNW,303,13.0,17.0,93,0.00,,,0.05,0.000000,,2013-01-19 03:33:00,
2013-01-18 22:44:00,28.0,26.0,-100.00,WNW,303,13.0,17.0,93,0.00,,,0.05,0.000000,,2013-01-19 03:44:00,
2013-01-18 22:53:00,28.0,26.0,-100.00,WNW,303,13.0,17.0,93,0.00,,,0.05,0.000000,,2013-01-19 03:53:00,
2013-01-18 23:02:00,28.0,26.0,-100.00,WNW,303,13.0,17.0,93,0.00,,,0.05,0.000000,,2013-01-19 04:02:00,
2013-01-18 23:03:00,28.0,26.0,-100.00,WNW,301,16.0,21.0,91,0.00,,,0.05,0.000000,,2013-01-19 04:03:00,
2013-01-18 23:33:00,28.0,26.0,-100.00,WNW,301,16.0,21.0,91,0.00,,,0.05,0.000000,,2013-01-19 04:33:00,
2013-01-18 23:43:00,28.0,26.0,-100.00,WNW,301,16.0,21.0,91,0.00,,,0.05,0.000000,,2013-01-19 04:43:00,
2013-01-18 23:53:00,28.0,26.0,-100.00,WNW,301,16.0,21.0,91,0.00,,,0.05,0.000000,,2013-01-19 04:53:00,